Time;durP1;ratioP1;P1;durP2;ratioP2;P2;SDS_P1;SDS_P2;PMS_P1;PMS_P2;Temp;Humidity;BMP_temperature;BMP_pressure;BME280_temperature;BME280_humidity;BME280_pressure;Samples;Min_cycle;Max_cycle;Signal;HPM_P1;HPM_P2
2023/11/14 00:03:10;;;;;;;2.70;0.80;;;;;;;;;;103902;1292;545434;-72
2023/11/14 00:06:47;;;;;;;3.50;0.80;;;;;;;;;;103800;1292;545404;-70
2023/11/14 00:10:24;;;;;;;2.70;1.10;;;;;;;;;;103685;1292;544819;-70
2023/11/14 00:14:03;;;;;;;3.40;1.10;;;;;;;;;;103790;1289;544927;-70
2023/11/14 00:17:40;;;;;;;4.10;1.20;;;;;;;;;;103762;1289;544789;-71
2023/11/14 00:21:18;;;;;;;5.30;1.70;;;;;;;;;;103613;1291;545053;-71
2023/11/14 00:24:54;;;;;;;5.50;1.60;;;;;;;;;;103862;1292;545636;-71
2023/11/14 00:28:32;;;;;;;4.80;1.30;;;;;;;;;;103718;1292;544841;-71
2023/11/14 00:32:09;;;;;;;5.50;1.20;;;;;;;;;;103748;1292;544965;-71
2023/11/14 00:35:47;;;;;;;5.10;1.30;;;;;;;;;;103719;1295;544877;-71
2023/11/14 00:39:24;;;;;;;3.80;1.00;;;;;;;;;;103669;1291;544720;-71
2023/11/14 00:43:02;;;;;;;3.40;0.90;;;;;;;;;;103404;1295;545138;-70
2023/11/14 00:46:39;;;;;;;5.80;1.70;;;;;;;;;;103223;1294;544755;-71
2023/11/14 00:50:19;;;;;;;5.40;1.40;;;;;;;;;;103796;1289;547995;-71
2023/11/14 00:53:56;;;;;;;5.00;1.10;;;;;;;;;;103698;1289;546016;-71
2023/11/14 00:57:32;;;;;;;6.20;1.40;;;;;;;;;;103975;1292;546327;-70
2023/11/14 01:01:05;;;;;;;5.50;1.20;;;;;;;;;;103816;1292;544792;-71
2023/11/14 01:04:47;;;;;;;6.70;1.30;;;;;;;;;;103587;1291;544999;-71
2023/11/14 01:08:23;;;;;;;9.00;1.80;;;;;;;;;;103721;1290;545448;-70
2023/11/14 01:12:02;;;;;;;7.90;1.70;;;;;;;;;;103818;1289;546000;-70
2023/11/14 01:15:39;;;;;;;6.50;1.40;;;;;;;;;;103736;1291;545463;-71
2023/11/14 01:19:16;;;;;;;7.20;1.40;;;;;;;;;;103792;1289;544956;-70
2023/11/14 01:22:54;;;;;;;6.80;1.60;;;;;;;;;;103707;1292;544763;-70
2023/11/14 01:26:35;;;;;;;6.40;1.20;;;;;;;;;;103620;1291;545001;-71
2023/11/14 01:30:09;;;;;;;7.50;1.50;;;;;;;;;;103920;1289;545542;-71
2023/11/14 01:33:47;;;;;;;8.90;1.80;;;;;;;;;;103774;1289;546166;-71
2023/11/14 01:37:23;;;;;;;6.50;2.00;;;;;;;;;;103775;1295;545396;-70
2023/11/14 01:41:07;;;;;;;7.20;1.70;;;;;;;;;;103759;1291;548170;-72
2023/11/14 01:44:35;;;;;;;9.40;3.80;;;;;;;;;;104653;1282;545238;-72
2023/11/14 01:48:16;;;;;;;42.30;36.10;;;;;;;;;;103771;1291;544995;-72
2023/11/14 01:51:53;;;;;;;11.20;5.10;;;;;;;;;;103765;1292;545890;-71
2023/11/14 01:55:31;;;;;;;14.10;7.80;;;;;;;;;;103729;1289;544994;-70
2023/11/14 01:59:09;;;;;;;10.50;4.60;;;;;;;;;;104029;1289;544863;-70
2023/11/14 02:02:47;;;;;;;9.40;3.60;;;;;;;;;;103605;1295;544792;-71
2023/11/14 02:06:23;;;;;;;6.20;1.50;;;;;;;;;;103732;1288;544788;-71
2023/11/14 02:10:07;;;;;;;5.90;1.30;;;;;;;;;;103583;1291;547989;-70
2023/11/14 02:13:38;;;;;;;7.20;1.60;;;;;;;;;;104348;1283;544628;-71
2023/11/14 02:17:16;;;;;;;7.90;1.70;;;;;;;;;;103571;1292;544819;-72
2023/11/14 02:20:53;;;;;;;7.00;2.10;;;;;;;;;;104050;1286;544839;-70
2023/11/14 02:24:33;;;;;;;7.50;1.40;;;;;;;;;;104012;1289;544901;-70
2023/11/14 02:28:08;;;;;;;6.10;1.70;;;;;;;;;;104109;1286;545044;-71
2023/11/14 02:31:47;;;;;;;6.50;1.70;;;;;;;;;;103637;1303;544697;-71
2023/11/14 02:35:23;;;;;;;5.80;1.40;;;;;;;;;;103841;1289;544704;-71
2023/11/14 02:39:02;;;;;;;9.40;2.60;;;;;;;;;;103837;1295;544904;-72
2023/11/14 02:42:41;;;;;;;9.70;3.20;;;;;;;;;;103387;1297;545674;-69
2023/11/14 02:46:16;;;;;;;13.70;6.80;;;;;;;;;;104457;1282;544724;-73
2023/11/14 02:49:59;;;;;;;8.80;3.00;;;;;;;;;;103813;1288;545840;-71
2023/11/14 02:53:30;;;;;;;6.90;2.50;;;;;;;;;;103759;1289;544771;-70
2023/11/14 02:57:12;;;;;;;7.70;1.80;;;;;;;;;;103738;1292;544960;-72
2023/11/14 03:00:47;;;;;;;8.50;2.00;;;;;;;;;;103913;1289;545005;-70
2023/11/14 03:04:23;;;;;;;7.20;1.60;;;;;;;;;;103754;1289;544878;-69
2023/11/14 03:08:00;;;;;;;7.50;1.40;;;;;;;;;;103835;1288;545539;-70
2023/11/14 03:11:38;;;;;;;5.40;1.20;;;;;;;;;;103746;1292;545407;-70
2023/11/14 03:15:15;;;;;;;8.30;1.50;;;;;;;;;;103757;1289;545399;-71
2023/11/14 03:18:53;;;;;;;8.10;1.60;;;;;;;;;;103757;1288;544998;-71
2023/11/14 03:22:36;;;;;;;8.40;1.40;;;;;;;;;;103657;1295;547969;-72
2023/11/14 03:26:08;;;;;;;7.40;1.70;;;;;;;;;;104323;1283;545147;-70
2023/11/14 03:29:45;;;;;;;8.00;1.80;;;;;;;;;;103726;1288;544817;-71
2023/11/14 03:33:22;;;;;;;8.60;1.60;;;;;;;;;;103734;1292;545495;-72
2023/11/14 03:37:00;;;;;;;8.40;1.60;;;;;;;;;;103898;1289;544832;-72
2023/11/14 03:40:38;;;;;;;8.80;1.60;;;;;;;;;;103735;1292;545128;-73
2023/11/14 03:44:20;;;;;;;6.50;1.50;;;;;;;;;;103671;1291;548202;-72
2023/11/14 03:47:52;;;;;;;8.40;1.50;;;;;;;;;;103853;1288;545036;-73
2023/11/14 03:51:30;;;;;;;8.10;1.60;;;;;;;;;;103590;1293;544987;-71
2023/11/14 03:55:03;;;;;;;7.10;1.70;;;;;;;;;;103813;1292;545306;-73
2023/11/14 03:58:45;;;;;;;8.20;1.50;;;;;;;;;;103945;1289;545070;-71
2023/11/14 04:02:22;;;;;;;8.00;1.50;;;;;;;;;;103895;1289;544792;-72
2023/11/14 04:06:00;;;;;;;8.70;1.60;;;;;;;;;;103757;1290;544877;-72
2023/11/14 04:09:43;;;;;;;9.00;1.60;;;;;;;;;;103714;1289;545607;-71
2023/11/14 04:13:15;;;;;;;8.60;1.40;;;;;;;;;;103773;1292;544742;-70
2023/11/14 04:16:52;;;;;;;9.50;1.80;;;;;;;;;;103786;1291;545990;-71
2023/11/14 04:20:29;;;;;;;7.00;2.00;;;;;;;;;;103869;1288;545024;-71
2023/11/14 04:24:07;;;;;;;8.20;1.70;;;;;;;;;;103638;1292;545261;-71
2023/11/14 04:27:44;;;;;;;8.40;2.10;;;;;;;;;;103847;1289;545713;-71
2023/11/14 04:31:22;;;;;;;6.70;1.60;;;;;;;;;;103559;1293;544756;-70
2023/11/14 04:34:59;;;;;;;10.30;1.90;;;;;;;;;;103924;1289;544930;-71
2023/11/14 04:38:37;;;;;;;7.40;1.40;;;;;;;;;;103673;1289;544897;-70
2023/11/14 04:42:14;;;;;;;8.70;1.80;;;;;;;;;;104027;1300;544720;-71
2023/11/14 04:45:51;;;;;;;9.60;1.80;;;;;;;;;;103744;1289;544714;-72
2023/11/14 04:49:29;;;;;;;8.00;1.50;;;;;;;;;;103708;1291;545050;-71
2023/11/14 04:53:06;;;;;;;7.90;1.60;;;;;;;;;;103503;1297;545097;-71
2023/11/14 04:56:45;;;;;;;9.50;2.10;;;;;;;;;;103835;1288;544599;-71
2023/11/14 05:00:21;;;;;;;10.40;1.70;;;;;;;;;;103744;1292;545174;-70
2023/11/14 05:03:58;;;;;;;7.20;1.60;;;;;;;;;;103777;1291;545006;-70
2023/11/14 05:07:37;;;;;;;10.00;1.50;;;;;;;;;;103637;1290;544932;-70
2023/11/14 05:11:14;;;;;;;9.70;1.90;;;;;;;;;;103743;1291;545555;-70
2023/11/14 05:14:57;;;;;;;8.50;1.70;;;;;;;;;;103531;1292;548019;-69
2023/11/14 05:18:29;;;;;;;10.00;1.80;;;;;;;;;;103738;1291;545634;-70
2023/11/14 05:22:06;;;;;;;11.40;2.20;;;;;;;;;;103679;1292;545115;-70
2023/11/14 05:25:44;;;;;;;10.40;1.90;;;;;;;;;;103717;1294;544842;-69
2023/11/14 05:29:21;;;;;;;8.40;1.60;;;;;;;;;;103813;1289;545696;-70
2023/11/14 05:33:18;;;;;;;9.10;1.90;;;;;;;;;;103519;1295;547957;-73
2023/11/14 05:36:36;;;;;;;10.70;1.90;;;;;;;;;;104196;1289;545659;-70
2023/11/14 05:40:14;;;;;;;13.20;4.50;;;;;;;;;;103721;1289;544980;-69
2023/11/14 05:43:51;;;;;;;12.40;3.40;;;;;;;;;;103787;1292;544977;-70
2023/11/14 05:47:29;;;;;;;10.20;2.20;;;;;;;;;;103466;1295;544916;-71
2023/11/14 05:51:06;;;;;;;9.00;2.30;;;;;;;;;;103752;1290;545644;-71
2023/11/14 05:54:43;;;;;;;9.00;1.90;;;;;;;;;;103713;1292;545578;-70
2023/11/14 05:58:21;;;;;;;9.90;1.90;;;;;;;;;;103651;1292;544739;-70
2023/11/14 06:01:58;;;;;;;9.70;2.00;;;;;;;;;;103813;1288;544980;-71
2023/11/14 06:05:36;;;;;;;9.70;1.70;;;;;;;;;;103522;1292;544989;-72
2023/11/14 06:09:13;;;;;;;10.60;1.90;;;;;;;;;;103711;1287;545391;-70
2023/11/14 06:12:51;;;;;;;10.90;2.20;;;;;;;;;;104749;1285;544877;-71
2023/11/14 06:16:29;;;;;;;8.30;1.90;;;;;;;;;;103814;1290;544728;-71
2023/11/14 06:20:07;;;;;;;9.20;2.20;;;;;;;;;;103852;1288;545272;-73
2023/11/14 06:23:39;;;;;;;9.40;2.60;;;;;;;;;;103704;1301;544844;-71
2023/11/14 06:27:26;;;;;;;11.30;2.70;;;;;;;;;;103715;1289;547760;-72
2023/11/14 06:31:01;;;;;;;9.90;2.60;;;;;;;;;;103719;1291;544936;-71
2023/11/14 06:34:36;;;;;;;10.70;2.30;;;;;;;;;;103644;1291;545036;-71
2023/11/14 06:38:14;;;;;;;9.50;2.30;;;;;;;;;;104440;1283;545086;-70
2023/11/14 06:41:51;;;;;;;11.30;2.20;;;;;;;;;;104230;1286;546241;-70
2023/11/14 06:45:28;;;;;;;9.30;1.80;;;;;;;;;;103862;1292;544993;-70
2023/11/14 06:49:01;;;;;;;10.90;2.50;;;;;;;;;;104007;1289;545696;-71
2023/11/14 06:52:42;;;;;;;10.30;2.30;;;;;;;;;;103795;1292;545663;-71
2023/11/14 06:56:21;;;;;;;8.90;2.40;;;;;;;;;;103685;1293;544771;-71
2023/11/14 06:59:54;;;;;;;9.60;2.00;;;;;;;;;;103944;1289;544886;-71
2023/11/14 07:03:35;;;;;;;11.20;2.50;;;;;;;;;;104197;1283;545000;-72
2023/11/14 07:07:22;;;;;;;14.90;3.20;;;;;;;;;;103721;1291;545054;-70
2023/11/14 07:10:50;;;;;;;16.40;5.70;;;;;;;;;;104080;1290;545386;-70
2023/11/14 07:14:29;;;;;;;21.10;5.90;;;;;;;;;;104193;1286;544858;-70
2023/11/14 07:18:11;;;;;;;13.30;3.20;;;;;;;;;;103597;1290;548304;-69
2023/11/14 07:21:48;;;;;;;11.10;3.50;;;;;;;;;;103478;1291;548187;-70
2023/11/14 07:25:20;;;;;;;13.50;3.50;;;;;;;;;;103607;1295;544774;-69
2023/11/14 07:28:57;;;;;;;9.70;3.20;;;;;;;;;;103717;1289;545734;-70
2023/11/14 07:32:35;;;;;;;10.90;3.40;;;;;;;;;;103763;1292;544922;-70
2023/11/14 07:36:12;;;;;;;14.60;5.20;;;;;;;;;;103712;1290;545847;-69
2023/11/14 07:39:50;;;;;;;12.20;3.70;;;;;;;;;;103729;1289;544859;-70
2023/11/14 07:43:29;;;;;;;10.40;3.20;;;;;;;;;;103542;1292;544706;-71
2023/11/14 07:47:04;;;;;;;12.10;3.60;;;;;;;;;;103776;1292;545220;-70
2023/11/14 07:50:42;;;;;;;9.30;2.80;;;;;;;;;;103559;1291;544844;-70
2023/11/14 07:54:20;;;;;;;13.70;4.00;;;;;;;;;;103517;1293;545416;-68
2023/11/14 07:57:57;;;;;;;13.20;4.20;;;;;;;;;;103607;1290;544882;-70
2023/11/14 08:01:35;;;;;;;23.60;6.90;;;;;;;;;;103624;1290;545509;-70
2023/11/14 08:05:12;;;;;;;19.80;8.00;;;;;;;;;;103731;1292;545225;-71
2023/11/14 08:08:49;;;;;;;16.60;7.30;;;;;;;;;;103836;1295;545552;-70
2023/11/14 08:12:27;;;;;;;17.10;5.70;;;;;;;;;;103668;1291;545619;-70
2023/11/14 08:16:04;;;;;;;12.20;4.30;;;;;;;;;;103905;1288;545661;-69
2023/11/14 08:19:44;;;;;;;15.80;5.50;;;;;;;;;;103675;1291;544937;-71
2023/11/14 08:23:20;;;;;;;12.80;3.40;;;;;;;;;;103770;1292;545046;-72
2023/11/14 08:27:04;;;;;;;8.20;2.40;;;;;;;;;;103699;1292;547945;-71
2023/11/14 08:30:34;;;;;;;9.80;2.60;;;;;;;;;;103809;1291;545146;-72
2023/11/14 08:34:08;;;;;;;10.60;3.00;;;;;;;;;;104528;1296;544867;-71
2023/11/14 08:37:49;;;;;;;10.80;4.00;;;;;;;;;;103828;1293;544957;-71
2023/11/14 08:41:27;;;;;;;13.90;4.70;;;;;;;;;;103613;1291;545048;-71
2023/11/14 08:45:04;;;;;;;11.70;3.80;;;;;;;;;;103972;1301;545507;-71
2023/11/14 08:48:43;;;;;;;11.70;3.70;;;;;;;;;;103842;1292;545434;-71
2023/11/14 08:52:19;;;;;;;17.80;5.60;;;;;;;;;;103797;1292;544796;-71
2023/11/14 08:55:56;;;;;;;17.80;7.60;;;;;;;;;;103430;1295;546207;-69
2023/11/14 08:59:40;;;;;;;14.30;4.80;;;;;;;;;;103838;1292;547793;-71
2023/11/14 09:03:12;;;;;;;13.00;3.80;;;;;;;;;;103437;1292;545026;-70
2023/11/14 09:06:48;;;;;;;14.30;5.20;;;;;;;;;;103774;1289;545948;-71
2023/11/14 09:10:32;;;;;;;14.50;4.70;;;;;;;;;;103316;1299;548021;-70
2023/11/14 09:14:10;;;;;;;13.10;3.80;;;;;;;;;;103687;1289;546305;-70
2023/11/14 09:17:37;;;;;;;13.90;4.50;;;;;;;;;;103816;1289;545040;-72
2023/11/14 09:21:19;;;;;;;14.60;4.40;;;;;;;;;;103695;1293;544778;-70
2023/11/14 09:24:56;;;;;;;15.70;4.20;;;;;;;;;;103840;1295;545141;-70
2023/11/14 09:28:35;;;;;;;15.50;4.40;;;;;;;;;;103758;1292;544817;-71
2023/11/14 09:32:11;;;;;;;13.30;4.00;;;;;;;;;;103679;1293;546613;-70
2023/11/14 09:35:49;;;;;;;10.30;3.60;;;;;;;;;;103610;1296;544941;-69
2023/11/14 09:39:27;;;;;;;11.90;3.80;;;;;;;;;;103675;1295;544803;-71
2023/11/14 09:43:04;;;;;;;9.60;3.50;;;;;;;;;;103467;1294;546306;-71
2023/11/14 09:46:42;;;;;;;11.00;3.00;;;;;;;;;;103580;1291;544950;-70
2023/11/14 09:50:19;;;;;;;11.00;2.70;;;;;;;;;;103807;1292;545408;-69
2023/11/14 09:53:57;;;;;;;12.00;3.00;;;;;;;;;;103467;1291;545477;-70
2023/11/14 09:57:39;;;;;;;8.50;2.50;;;;;;;;;;103685;1292;548512;-69
2023/11/14 10:01:10;;;;;;;7.10;2.40;;;;;;;;;;103751;1288;544822;-72
2023/11/14 10:04:48;;;;;;;9.20;2.90;;;;;;;;;;103917;1289;545260;-71
2023/11/14 10:08:27;;;;;;;12.50;3.60;;;;;;;;;;103683;1291;545062;-70
2023/11/14 10:12:04;;;;;;;9.20;2.80;;;;;;;;;;103631;1291;544743;-71
2023/11/14 10:15:41;;;;;;;9.20;2.60;;;;;;;;;;103766;1289;545449;-69
2023/11/14 10:19:19;;;;;;;10.80;3.20;;;;;;;;;;103693;1289;545339;-70
2023/11/14 10:22:58;;;;;;;9.20;2.50;;;;;;;;;;103760;1291;544982;-71
2023/11/14 10:26:31;;;;;;;11.10;3.20;;;;;;;;;;104013;1290;546033;-71
2023/11/14 10:30:11;;;;;;;10.30;3.20;;;;;;;;;;103731;1291;545596;-70
2023/11/14 10:33:48;;;;;;;12.20;3.60;;;;;;;;;;103902;1289;545031;-69
2023/11/14 10:37:30;;;;;;;8.00;2.20;;;;;;;;;;103859;1289;545048;-72
2023/11/14 10:41:03;;;;;;;8.40;2.40;;;;;;;;;;103581;1294;545020;-70
2023/11/14 10:44:38;;;;;;;7.10;2.00;;;;;;;;;;103824;1289;544937;-70
2023/11/14 10:48:22;;;;;;;9.70;2.60;;;;;;;;;;103535;1294;545009;-69
2023/11/14 10:52:01;;;;;;;8.20;2.40;;;;;;;;;;103235;1299;548248;-70
2023/11/14 10:55:33;;;;;;;12.20;3.40;;;;;;;;;;103677;1288;545433;-71
2023/11/14 10:59:13;;;;;;;11.50;2.80;;;;;;;;;;103904;1289;545825;-70
2023/11/14 11:02:51;;;;;;;8.90;2.80;;;;;;;;;;103902;1289;545901;-70
2023/11/14 11:06:34;;;;;;;9.30;2.80;;;;;;;;;;103520;1295;547840;-71
2023/11/14 11:10:06;;;;;;;10.30;2.40;;;;;;;;;;103816;1292;545025;-70
2023/11/14 11:13:43;;;;;;;13.40;2.60;;;;;;;;;;103848;1288;545542;-66
2023/11/14 11:17:34;;;;;;;11.40;3.10;;;;;;;;;;103952;1292;544941;-73
2023/11/14 11:21:11;;;;;;;12.20;3.60;;;;;;;;;;103502;1292;547818;-71
2023/11/14 11:24:33;;;;;;;15.60;3.70;;;;;;;;;;103722;1291;545135;-70
2023/11/14 11:28:22;;;;;;;12.60;4.50;;;;;;;;;;103945;1286;545220;-70
2023/11/14 11:32:06;;;;;;;13.10;3.10;;;;;;;;;;103645;1291;544947;-70
2023/11/14 11:35:31;;;;;;;10.10;3.40;;;;;;;;;;103757;1289;547892;-70
2023/11/14 11:39:05;;;;;;;12.30;3.20;;;;;;;;;;103814;1292;546346;-70
2023/11/14 11:42:40;;;;;;;14.20;4.50;;;;;;;;;;103690;1291;544915;-70
2023/11/14 11:46:33;;;;;;;14.60;4.40;;;;;;;;;;103813;1292;545016;-71
2023/11/14 11:49:51;;;;;;;14.00;6.70;;;;;;;;;;104561;1283;544830;-71
2023/11/14 11:53:42;;;;;;;12.80;4.70;;;;;;;;;;103552;1291;544756;-71
2023/11/14 11:57:10;;;;;;;13.40;4.50;;;;;;;;;;103810;1295;544995;-70
2023/11/14 12:00:47;;;;;;;11.20;3.60;;;;;;;;;;103656;1294;545050;-70
2023/11/14 12:04:26;;;;;;;14.60;4.50;;;;;;;;;;103764;1291;545761;-72
2023/11/14 12:08:05;;;;;;;13.20;3.90;;;;;;;;;;103685;1292;545941;-71
2023/11/14 12:12:00;;;;;;;15.10;5.10;;;;;;;;;;103820;1292;547943;-73
2023/11/14 12:15:17;;;;;;;11.90;3.70;;;;;;;;;;103842;1291;545533;-70
2023/11/14 12:18:55;;;;;;;13.80;4.30;;;;;;;;;;103844;1291;546127;-71
2023/11/14 12:22:33;;;;;;;13.10;4.30;;;;;;;;;;103780;1291;544984;-73
2023/11/14 12:26:10;;;;;;;12.60;3.10;;;;;;;;;;103794;1294;544647;-72
2023/11/14 12:29:47;;;;;;;11.00;3.00;;;;;;;;;;103743;1292;544980;-71
2023/11/14 12:33:25;;;;;;;12.70;3.30;;;;;;;;;;104233;1285;544729;-69
2023/11/14 12:37:07;;;;;;;8.20;2.20;;;;;;;;;;103727;1292;545451;-71
2023/11/14 12:40:39;;;;;;;11.70;3.40;;;;;;;;;;103757;1291;545014;-70
2023/11/14 12:44:17;;;;;;;10.80;2.80;;;;;;;;;;103661;1293;545355;-72
2023/11/14 12:47:57;;;;;;;11.30;3.00;;;;;;;;;;103696;1295;544692;-70
2023/11/14 12:51:32;;;;;;;11.10;3.80;;;;;;;;;;103708;1293;545783;-72
2023/11/14 12:55:09;;;;;;;10.70;2.40;;;;;;;;;;103783;1291;544785;-69
2023/11/14 12:58:46;;;;;;;11.90;4.30;;;;;;;;;;103536;1289;545100;-70
2023/11/14 13:02:25;;;;;;;11.30;3.90;;;;;;;;;;103737;1291;544893;-71
2023/11/14 13:06:02;;;;;;;16.20;5.10;;;;;;;;;;103864;1291;545150;-73
2023/11/14 13:09:40;;;;;;;27.70;11.20;;;;;;;;;;103748;1292;545069;-72
2023/11/14 13:13:17;;;;;;;9.90;3.20;;;;;;;;;;104052;1289;544828;-71
2023/11/14 13:16:54;;;;;;;10.60;4.00;;;;;;;;;;103662;1295;545483;-72
2023/11/14 13:20:32;;;;;;;9.70;2.90;;;;;;;;;;103901;1289;544997;-70
2023/11/14 13:24:09;;;;;;;12.10;3.20;;;;;;;;;;103543;1295;545701;-71
2023/11/14 13:27:47;;;;;;;11.10;3.90;;;;;;;;;;103703;1303;544770;-71
2023/11/14 13:31:24;;;;;;;11.00;3.80;;;;;;;;;;103722;1292;545376;-71
2023/11/14 13:35:03;;;;;;;15.20;5.50;;;;;;;;;;103771;1290;545989;-70
2023/11/14 13:38:41;;;;;;;12.30;5.20;;;;;;;;;;103911;1289;546446;-71
2023/11/14 13:42:16;;;;;;;13.70;6.50;;;;;;;;;;103719;1292;544692;-71
2023/11/14 13:45:54;;;;;;;13.60;4.70;;;;;;;;;;103682;1291;545124;-70
2023/11/14 13:49:31;;;;;;;18.40;7.60;;;;;;;;;;103628;1289;544918;-69
2023/11/14 13:53:08;;;;;;;25.20;10.70;;;;;;;;;;104024;1289;544862;-71
2023/11/14 13:56:46;;;;;;;17.80;6.40;;;;;;;;;;103614;1291;544987;-71
2023/11/14 14:00:26;;;;;;;13.10;4.50;;;;;;;;;;104129;1288;545100;-72
2023/11/14 14:04:01;;;;;;;11.50;2.60;;;;;;;;;;103741;1291;545292;-71
2023/11/14 14:07:39;;;;;;;15.00;4.30;;;;;;;;;;103671;1290;544944;-71
2023/11/14 14:11:16;;;;;;;13.30;4.40;;;;;;;;;;103774;1292;544861;-70
2023/11/14 14:14:54;;;;;;;13.70;4.60;;;;;;;;;;104066;1286;545448;-71
2023/11/14 14:18:31;;;;;;;18.30;8.20;;;;;;;;;;103561;1297;545422;-70
2023/11/14 14:22:08;;;;;;;17.10;6.70;;;;;;;;;;103822;1292;544944;-70
2023/11/14 14:25:46;;;;;;;16.40;6.10;;;;;;;;;;103781;1291;544611;-70
2023/11/14 14:29:21;;;;;;;17.60;7.10;;;;;;;;;;103801;1292;544835;-72
2023/11/14 14:33:00;;;;;;;14.00;4.60;;;;;;;;;;103475;1291;544940;-72
2023/11/14 14:36:39;;;;;;;11.40;4.60;;;;;;;;;;103615;1289;545553;-72
2023/11/14 14:40:17;;;;;;;12.50;4.10;;;;;;;;;;103952;1289;545640;-70
2023/11/14 14:43:53;;;;;;;14.00;4.70;;;;;;;;;;104140;1286;544938;-70
2023/11/14 14:47:32;;;;;;;14.10;5.40;;;;;;;;;;103417;1294;544826;-70
2023/11/14 14:51:09;;;;;;;20.40;10.50;;;;;;;;;;103648;1291;546033;-71
2023/11/14 14:54:45;;;;;;;12.10;4.60;;;;;;;;;;103598;1295;544843;-71
2023/11/14 14:58:23;;;;;;;25.20;12.10;;;;;;;;;;104050;1289;544704;-72
2023/11/14 15:02:00;;;;;;;17.60;7.90;;;;;;;;;;103824;1289;544978;-71
2023/11/14 15:05:37;;;;;;;33.70;20.80;;;;;;;;;;103889;1294;545199;-72
2023/11/14 15:09:21;;;;;;;18.70;9.00;;;;;;;;;;103823;1292;545942;-70
2023/11/14 15:12:53;;;;;;;12.90;4.60;;;;;;;;;;103955;1290;545073;-70
2023/11/14 15:16:36;;;;;;;14.90;5.70;;;;;;;;;;103714;1295;548027;-70
2023/11/14 15:20:10;;;;;;;11.00;3.90;;;;;;;;;;103679;1293;544816;-71
2023/11/14 15:23:45;;;;;;;14.40;5.20;;;;;;;;;;103918;1288;544904;-70
2023/11/14 15:27:22;;;;;;;11.90;3.00;;;;;;;;;;103690;1291;544726;-74
2023/11/14 15:31:00;;;;;;;10.00;3.30;;;;;;;;;;104426;1282;544943;-72
2023/11/14 15:34:38;;;;;;;11.10;4.20;;;;;;;;;;103670;1295;544692;-73
2023/11/14 15:38:20;;;;;;;10.00;2.60;;;;;;;;;;103601;1291;549440;-71
2023/11/14 15:41:56;;;;;;;10.60;3.70;;;;;;;;;;103734;1292;545616;-70
2023/11/14 15:45:31;;;;;;;13.50;4.30;;;;;;;;;;104240;1287;545029;-71
2023/11/14 15:49:07;;;;;;;17.50;5.40;;;;;;;;;;103761;1303;545450;-72
2023/11/14 15:52:45;;;;;;;17.90;6.10;;;;;;;;;;103653;1297;544787;-72
2023/11/14 15:56:22;;;;;;;20.30;7.80;;;;;;;;;;103672;1291;544726;-71
2023/11/14 16:00:04;;;;;;;15.00;5.00;;;;;;;;;;103779;1292;545137;-69
2023/11/14 16:03:37;;;;;;;15.10;6.90;;;;;;;;;;103798;1291;545339;-73
2023/11/14 16:07:14;;;;;;;21.30;9.30;;;;;;;;;;103809;1291;544970;-72
2023/11/14 16:10:52;;;;;;;20.60;10.20;;;;;;;;;;103695;1304;545581;-71
2023/11/14 16:14:26;;;;;;;24.60;10.90;;;;;;;;;;104000;1290;544901;-72
2023/11/14 16:18:15;;;;;;;24.80;10.50;;;;;;;;;;103733;1291;548400;-70
2023/11/14 16:21:45;;;;;;;22.80;9.20;;;;;;;;;;103737;1292;544806;-71
2023/11/14 16:25:22;;;;;;;22.50;9.60;;;;;;;;;;103525;1295;545794;-70
2023/11/14 16:29:00;;;;;;;16.90;7.60;;;;;;;;;;103693;1292;544942;-71
2023/11/14 16:32:36;;;;;;;21.30;8.30;;;;;;;;;;103739;1290;545402;-69
2023/11/14 16:36:14;;;;;;;18.20;7.80;;;;;;;;;;103805;1292;545582;-70
2023/11/14 16:39:52;;;;;;;19.50;8.60;;;;;;;;;;103964;1289;545205;-71
2023/11/14 16:43:29;;;;;;;17.20;7.90;;;;;;;;;;103541;1296;544958;-71
2023/11/14 16:47:08;;;;;;;20.40;6.80;;;;;;;;;;103905;1289;545723;-71
2023/11/14 16:50:45;;;;;;;18.40;7.10;;;;;;;;;;103726;1292;545153;-71
2023/11/14 16:54:19;;;;;;;17.70;6.30;;;;;;;;;;104131;1289;544724;-70
2023/11/14 16:57:55;;;;;;;18.50;6.90;;;;;;;;;;103834;1289;546321;-70
2023/11/14 17:01:43;;;;;;;16.30;7.20;;;;;;;;;;104024;1288;547928;-70
2023/11/14 17:05:14;;;;;;;16.00;6.50;;;;;;;;;;103731;1290;545768;-70
2023/11/14 17:08:52;;;;;;;12.10;5.10;;;;;;;;;;103626;1291;545152;-71
2023/11/14 17:12:30;;;;;;;14.00;5.20;;;;;;;;;;103806;1289;545128;-71
2023/11/14 17:16:13;;;;;;;12.90;5.30;;;;;;;;;;103391;1292;548103;-72
2023/11/14 17:19:48;;;;;;;12.90;5.00;;;;;;;;;;103743;1289;544778;-71
2023/11/14 17:23:27;;;;;;;16.80;6.40;;;;;;;;;;103776;1289;547961;-72
2023/11/14 17:26:59;;;;;;;15.10;6.10;;;;;;;;;;103847;1289;544871;-73
2023/11/14 17:30:36;;;;;;;15.50;5.60;;;;;;;;;;103735;1292;544841;-70
2023/11/14 17:34:14;;;;;;;20.30;7.70;;;;;;;;;;103781;1290;545702;-70
2023/11/14 17:37:51;;;;;;;20.90;8.30;;;;;;;;;;103691;1291;545014;-70
2023/11/14 17:41:25;;;;;;;23.30;7.40;;;;;;;;;;103707;1302;544712;-71
2023/11/14 17:45:06;;;;;;;18.30;7.00;;;;;;;;;;103643;1291;544759;-70
2023/11/14 17:48:44;;;;;;;19.70;7.70;;;;;;;;;;104117;1288;545065;-71
2023/11/14 17:52:21;;;;;;;33.00;15.80;;;;;;;;;;103757;1291;544871;-72
2023/11/14 17:56:00;;;;;;;29.00;13.50;;;;;;;;;;103590;1291;545068;-70
2023/11/14 17:59:36;;;;;;;23.40;10.00;;;;;;;;;;103661;1292;544717;-71
2023/11/14 18:03:16;;;;;;;28.20;12.80;;;;;;;;;;104001;1287;544829;-71
2023/11/14 18:06:51;;;;;;;22.40;9.60;;;;;;;;;;103731;1291;545610;-71
2023/11/14 18:10:28;;;;;;;12.30;5.60;;;;;;;;;;103755;1294;544990;-70
2023/11/14 18:14:06;;;;;;;18.20;7.70;;;;;;;;;;103865;1289;544921;-72
2023/11/14 18:17:43;;;;;;;22.00;10.90;;;;;;;;;;103524;1291;544939;-71
2023/11/14 18:21:22;;;;;;;48.10;23.80;;;;;;;;;;103634;1294;545402;-71
2023/11/14 18:24:58;;;;;;;35.20;19.50;;;;;;;;;;104498;1290;545018;-69
2023/11/14 18:28:35;;;;;;;27.80;12.00;;;;;;;;;;104100;1292;544813;-70
2023/11/14 18:32:17;;;;;;;20.30;9.60;;;;;;;;;;103745;1292;544964;-70
2023/11/14 18:35:53;;;;;;;24.40;9.80;;;;;;;;;;103751;1291;544903;-70
2023/11/14 18:39:28;;;;;;;19.90;9.30;;;;;;;;;;103833;1290;545886;-71
2023/11/14 18:43:07;;;;;;;17.00;6.30;;;;;;;;;;103825;1289;545461;-70
2023/11/14 18:46:43;;;;;;;18.50;6.80;;;;;;;;;;103942;1289;545487;-71
2023/11/14 18:50:21;;;;;;;15.30;6.00;;;;;;;;;;103657;1292;544932;-71
2023/11/14 18:54:00;;;;;;;12.50;5.10;;;;;;;;;;103598;1292;545310;-71
2023/11/14 18:57:55;;;;;;;11.60;6.10;;;;;;;;;;103774;1292;548541;-73
2023/11/14 19:01:13;;;;;;;19.30;9.20;;;;;;;;;;103867;1289;544852;-70
2023/11/14 19:04:52;;;;;;;20.00;10.30;;;;;;;;;;104446;1285;545079;-72
2023/11/14 19:08:28;;;;;;;20.00;9.50;;;;;;;;;;103739;1291;545406;-69
2023/11/14 19:12:06;;;;;;;22.00;10.40;;;;;;;;;;103844;1289;544728;-71
2023/11/14 19:15:43;;;;;;;20.60;11.40;;;;;;;;;;103927;1289;545530;-72
2023/11/14 19:19:26;;;;;;;16.90;7.60;;;;;;;;;;103893;1289;548101;-70
2023/11/14 19:23:03;;;;;;;16.60;8.30;;;;;;;;;;103924;1292;545625;-71
2023/11/14 19:26:44;;;;;;;13.90;5.60;;;;;;;;;;103556;1294;547974;-71
2023/11/14 19:30:12;;;;;;;11.00;4.10;;;;;;;;;;103870;1289;545172;-70
2023/11/14 19:33:52;;;;;;;17.60;8.20;;;;;;;;;;103918;1292;545767;-70
2023/11/14 19:37:27;;;;;;;12.10;5.40;;;;;;;;;;104185;1285;545535;-70
2023/11/14 19:41:07;;;;;;;10.10;4.80;;;;;;;;;;104598;1282;547893;-72
2023/11/14 19:44:43;;;;;;;11.60;4.50;;;;;;;;;;103396;1294;544842;-71
2023/11/14 19:48:26;;;;;;;17.60;8.70;;;;;;;;;;103744;1291;547763;-71
2023/11/14 19:52:04;;;;;;;10.30;4.80;;;;;;;;;;103692;1292;545435;-73
2023/11/14 19:55:35;;;;;;;8.90;4.30;;;;;;;;;;103900;1289;545465;-71
2023/11/14 19:59:11;;;;;;;8.10;2.90;;;;;;;;;;103771;1289;544728;-69
2023/11/14 20:02:52;;;;;;;7.10;2.00;;;;;;;;;;103357;1294;545352;-70
2023/11/14 20:06:27;;;;;;;6.60;2.40;;;;;;;;;;103749;1290;545063;-70
2023/11/14 20:10:08;;;;;;;9.30;3.10;;;;;;;;;;103562;1289;545345;-71
2023/11/14 20:13:43;;;;;;;10.50;4.10;;;;;;;;;;103721;1292;544870;-71
2023/11/14 20:17:20;;;;;;;10.20;4.10;;;;;;;;;;103578;1291;545031;-71
2023/11/14 20:20:59;;;;;;;8.80;3.90;;;;;;;;;;104567;1282;547990;-70
2023/11/14 20:24:41;;;;;;;10.60;4.10;;;;;;;;;;103706;1293;547856;-71
2023/11/14 20:28:31;;;;;;;15.00;7.30;;;;;;;;;;103764;1292;548062;-71
2023/11/14 20:31:50;;;;;;;15.80;6.30;;;;;;;;;;103576;1290;545009;-71
2023/11/14 20:35:27;;;;;;;13.40;5.30;;;;;;;;;;103828;1288;544930;-70
2023/11/14 20:39:14;;;;;;;16.20;5.90;;;;;;;;;;103695;1292;544949;-70
2023/11/14 20:42:42;;;;;;;16.40;6.30;;;;;;;;;;103673;1291;545000;-71
2023/11/14 20:46:19;;;;;;;17.90;7.00;;;;;;;;;;103423;1294;544885;-70
2023/11/14 20:49:59;;;;;;;16.80;7.00;;;;;;;;;;103770;1289;544930;-71
2023/11/14 20:53:36;;;;;;;20.00;10.00;;;;;;;;;;103672;1295;545001;-71